Time;durP1;ratioP1;P1;durP2;ratioP2;P2;SDS_P1;SDS_P2;PMS_P1;PMS_P2;Temp;Humidity;BMP_temperature;BMP_pressure;BME280_temperature;BME280_humidity;BME280_pressure;Samples;Min_cycle;Max_cycle;Signal;HPM_P1;HPM_P2
2020/12/01 00:00:42;;;;;;;26.15;4.10;;;11.70;95.80;;;;;;2081771;28;20433;-66
2020/12/01 00:01:51;;;;;;;28.58;4.85;;;11.70;95.90;;;;;;2082386;28;20031;-66
2020/12/01 00:02:51;;;;;;;24.98;5.63;;;11.70;96.00;;;;;;2081453;28;20017;-67
2020/12/01 00:03:52;;;;;;;26.60;5.65;;;11.70;96.10;;;;;;2101746;28;20447;-67
2020/12/01 00:04:53;;;;;;;30.85;4.70;;;11.70;96.30;;;;;;2103649;28;20031;-66
2020/12/01 00:05:54;;;;;;;27.90;4.45;;;11.70;96.20;;;;;;2081358;28;20022;-67
2020/12/01 00:06:54;;;;;;;27.77;4.90;;;11.70;96.20;;;;;;2084353;28;20013;-67
2020/12/01 00:07:55;;;;;;;23.73;4.85;;;11.70;96.20;;;;;;2093546;28;20028;-67
2020/12/01 00:08:56;;;;;;;22.42;4.45;;;11.70;96.10;;;;;;2086799;28;20092;-69
2020/12/01 00:09:56;;;;;;;25.90;4.78;;;11.70;96.20;;;;;;2081271;28;20025;-69
2020/12/01 00:10:57;;;;;;;25.50;4.68;;;11.70;96.20;;;;;;2080308;28;20385;-69
2020/12/01 00:11:58;;;;;;;19.92;4.75;;;11.70;96.30;;;;;;2083708;28;20072;-68
2020/12/01 00:12:58;;;;;;;28.52;5.10;;;11.70;96.30;;;;;;2079839;28;20060;-69
2020/12/01 00:13:59;;;;;;;22.27;5.10;;;11.70;96.30;;;;;;2087387;28;20066;-68
2020/12/01 00:15:00;;;;;;;22.80;4.30;;;11.70;96.00;;;;;;2083624;28;20026;-67
2020/12/01 00:16:01;;;;;;;26.45;5.03;;;11.80;95.90;;;;;;2083591;28;20447;-66
2020/12/01 00:17:02;;;;;;;26.25;4.90;;;11.80;96.00;;;;;;2083937;28;20017;-67
2020/12/01 00:18:02;;;;;;;20.38;4.68;;;11.80;95.90;;;;;;2081066;28;20040;-68
2020/12/01 00:19:04;;;;;;;16.85;4.63;;;11.80;96.00;;;;;;2084275;28;20443;-67
2020/12/01 00:20:07;;;;;;;23.75;4.68;;;11.80;95.70;;;;;;2082354;28;20074;-67
2020/12/01 00:21:16;;;;;;;24.70;5.15;;;11.80;95.50;;;;;;2089276;28;20056;-69
2020/12/01 00:22:19;;;;;;;29.95;5.72;;;11.80;95.50;;;;;;2085175;28;20105;-66
2020/12/01 00:23:19;;;;;;;31.98;5.05;;;11.80;95.60;;;;;;2089615;28;20035;-67
2020/12/01 00:24:20;;;;;;;27.25;5.15;;;11.80;95.60;;;;;;2084086;28;20030;-67
2020/12/01 00:25:22;;;;;;;25.75;4.78;;;11.90;95.80;;;;;;2083682;28;20092;-66
2020/12/01 00:26:23;;;;;;;;;;;11.80;95.90;;;;;;2081372;28;20022;-67
2020/12/01 00:27:23;;;;;;;23.55;4.57;;;11.80;95.90;;;;;;2083889;28;20284;-67
2020/12/01 00:28:24;;;;;;;25.27;4.95;;;11.80;95.90;;;;;;2097593;28;20020;-68
2020/12/01 00:29:25;;;;;;;28.95;5.72;;;11.80;96.00;;;;;;2101669;28;20016;-67
2020/12/01 00:30:26;;;;;;;20.00;4.60;;;11.80;96.10;;;;;;2087351;28;20040;-70
2020/12/01 00:31:26;;;;;;;22.25;4.78;;;11.70;96.20;;;;;;2081479;28;20033;-68
2020/12/01 00:32:27;;;;;;;22.23;5.10;;;11.70;96.20;;;;;;2086400;28;20028;-67
2020/12/01 00:33:28;;;;;;;28.33;5.00;;;11.70;96.30;;;;;;2080552;28;20657;-67
2020/12/01 00:34:29;;;;;;;30.98;5.65;;;11.70;96.40;;;;;;2084117;28;20152;-67
2020/12/01 00:35:30;;;;;;;34.20;6.10;;;11.70;96.50;;;;;;2083328;28;20509;-67
2020/12/01 00:36:31;;;;;;;36.13;5.85;;;11.70;96.60;;;;;;2084532;28;20151;-67
2020/12/01 00:37:33;;;;;;;25.50;5.93;;;11.70;96.70;;;;;;2085423;28;20586;-67
2020/12/01 00:38:34;;;;;;;32.50;4.97;;;11.70;96.80;;;;;;2080588;28;20259;-68
2020/12/01 00:39:34;;;;;;;27.98;5.40;;;11.70;96.80;;;;;;2087775;28;20017;-69
2020/12/01 00:40:35;;;;;;;21.85;5.30;;;11.70;96.80;;;;;;2089243;28;20041;-68
2020/12/01 00:41:37;;;;;;;31.63;6.28;;;11.70;97.00;;;;;;2082902;28;20439;-69
2020/12/01 00:42:37;;;;;;;26.08;6.68;;;11.70;97.00;;;;;;2083601;28;20060;-68
2020/12/01 00:43:38;;;;;;;35.42;6.15;;;11.60;97.10;;;;;;2081155;28;20112;-68
2020/12/01 00:44:39;;;;;;;27.33;5.50;;;11.60;97.20;;;;;;2083897;28;20040;-68
2020/12/01 00:45:40;;;;;;;28.13;5.50;;;11.60;97.30;;;;;;2082791;28;20030;-68
2020/12/01 00:46:40;;;;;;;30.05;5.22;;;11.60;97.50;;;;;;2082441;28;20025;-69
2020/12/01 00:47:41;;;;;;;26.20;5.68;;;11.60;97.50;;;;;;2084211;28;20021;-67
2020/12/01 00:48:42;;;;;;;27.58;5.45;;;11.60;97.60;;;;;;2088420;28;20021;-70
2020/12/01 00:49:43;;;;;;;30.48;5.30;;;11.60;97.50;;;;;;2085275;28;20519;-68
2020/12/01 00:50:44;;;;;;;22.75;5.28;;;11.60;97.50;;;;;;2080349;28;20040;-69
2020/12/01 00:51:49;;;;;;;16.27;4.75;;;11.60;97.40;;;;;;2094104;28;20097;-73
2020/12/01 00:52:50;;;;;;;25.08;5.57;;;11.60;97.40;;;;;;2086463;28;20033;-71
2020/12/01 00:53:51;;;;;;;26.70;5.22;;;11.60;97.40;;;;;;2080880;28;20100;-68
2020/12/01 00:54:52;;;;;;;23.23;5.65;;;11.60;97.30;;;;;;2082096;28;20033;-68
2020/12/01 00:55:53;;;;;;;23.08;5.05;;;11.60;97.20;;;;;;2080841;28;20104;-68
2020/12/01 00:56:57;;;;;;;30.83;6.93;;;11.70;97.10;;;;;;2080390;28;20083;-67
2020/12/01 00:57:58;;;;;;;35.22;6.25;;;11.70;97.10;;;;;;2083278;28;20025;-67
2020/12/01 00:58:58;;;;;;;27.58;5.32;;;11.70;97.10;;;;;;2080529;28;20124;-68
2020/12/01 00:59:59;;;;;;;33.38;5.43;;;11.70;97.10;;;;;;2080261;28;20145;-67
2020/12/01 01:01:00;;;;;;;31.52;5.95;;;11.70;97.10;;;;;;2080631;28;20366;-70
2020/12/01 01:02:00;;;;;;;27.50;5.18;;;11.70;97.00;;;;;;2080440;28;20049;-67
2020/12/01 01:03:01;;;;;;;25.88;5.20;;;11.70;96.90;;;;;;2080264;28;20021;-67
2020/12/01 01:04:02;;;;;;;26.23;5.10;;;11.80;96.70;;;;;;2080729;28;20025;-67
2020/12/01 01:05:04;;;;;;;27.55;5.30;;;11.80;96.70;;;;;;2083073;28;20103;-67
2020/12/01 01:06:08;;;;;;;30.77;5.72;;;11.80;96.50;;;;;;2088007;28;20020;-68
2020/12/01 01:07:08;;;;;;;29.35;5.53;;;11.80;96.50;;;;;;2088122;28;20032;-67
2020/12/01 01:08:09;;;;;;;25.50;4.47;;;11.80;96.50;;;;;;2096038;28;20095;-72
2020/12/01 01:09:10;;;;;;;26.77;5.40;;;11.80;96.40;;;;;;2080509;28;20040;-67
2020/12/01 01:10:24;;;;;;;28.25;5.00;;;11.80;96.50;;;;;;2087309;28;20051;-67
2020/12/01 01:11:30;;;;;;;28.30;5.70;;;11.90;96.40;;;;;;2084472;28;20116;-68
2020/12/01 01:12:34;;;;;;;22.02;5.13;;;11.80;96.40;;;;;;2087551;28;20025;-67
2020/12/01 01:13:36;;;;;;;29.77;5.10;;;11.90;96.40;;;;;;2083925;28;20095;-68
2020/12/01 01:14:38;;;;;;;;;;;11.90;96.40;;;;;;2089249;28;20361;-67
2020/12/01 01:15:39;;;;;;;25.20;5.20;;;11.90;96.70;;;;;;2089161;28;19912;-67
2020/12/01 01:16:41;;;;;;;25.93;5.17;;;11.90;96.40;;;;;;2088450;28;20024;-67
2020/12/01 01:17:42;;;;;;;28.50;5.80;;;11.90;96.40;;;;;;2088309;28;20262;-67
2020/12/01 01:18:43;;;;;;;25.92;5.72;;;11.90;96.40;;;;;;2087013;28;20029;-67
2020/12/01 01:19:43;;;;;;;32.47;5.85;;;11.90;96.40;;;;;;2088883;28;20104;-68
2020/12/01 01:20:44;;;;;;;23.95;5.10;;;11.90;96.40;;;;;;2088192;28;20063;-68
2020/12/01 01:21:47;;;;;;;29.75;5.68;;;11.90;96.40;;;;;;2096467;28;20515;-67
2020/12/01 01:22:48;;;;;;;26.90;6.10;;;11.90;96.40;;;;;;2104708;28;20055;-68
2020/12/01 01:23:48;;;;;;;23.70;4.57;;;11.90;96.30;;;;;;2089064;28;20079;-68
2020/12/01 01:24:49;;;;;;;28.23;4.95;;;11.90;96.30;;;;;;2087857;28;20145;-70
2020/12/01 01:25:50;;;;;;;20.55;4.60;;;11.80;96.30;;;;;;2088310;28;20021;-70
2020/12/01 01:26:52;;;;;;;28.58;5.75;;;11.90;96.30;;;;;;2089084;28;20129;-70
2020/12/01 01:27:53;;;;;;;26.33;4.82;;;11.80;96.20;;;;;;2087346;28;20021;-71
2020/12/01 01:28:53;;;;;;;30.00;5.57;;;11.80;96.20;;;;;;2088106;28;20113;-70
2020/12/01 01:29:54;;;;;;;22.23;5.45;;;11.80;96.20;;;;;;2089060;28;20021;-70
2020/12/01 01:30:55;;;;;;;27.45;4.68;;;11.80;96.10;;;;;;2086826;28;20547;-70
2020/12/01 01:31:57;;;;;;;24.10;5.15;;;11.90;96.00;;;;;;2080065;28;20489;-69
2020/12/01 01:32:57;;;;;;;17.63;3.83;;;11.80;95.90;;;;;;2075944;28;20587;-69
2020/12/01 01:33:58;;;;;;;20.25;5.18;;;11.90;95.90;;;;;;2087257;28;20032;-69
2020/12/01 01:34:59;;;;;;;22.48;3.83;;;11.90;95.80;;;;;;2096542;28;20107;-69
2020/12/01 01:36:00;;;;;;;27.00;4.82;;;11.90;95.80;;;;;;2094126;28;20039;-69
2020/12/01 01:37:00;;;;;;;29.65;4.45;;;11.90;95.70;;;;;;2078558;28;20590;-69
2020/12/01 01:38:02;;;;;;;24.15;4.38;;;11.90;95.60;;;;;;2087987;28;20037;-69
2020/12/01 01:39:05;;;;;;;21.48;4.05;;;11.90;95.40;;;;;;2091209;28;20020;-69
2020/12/01 01:40:07;;;;;;;15.93;3.50;;;11.90;95.30;;;;;;2080702;28;20025;-68
2020/12/01 01:41:08;;;;;;;20.65;3.80;;;11.90;95.30;;;;;;2086793;28;20474;-67
2020/12/01 01:42:10;;;;;;;19.33;3.90;;;11.90;95.20;;;;;;2085091;28;20033;-67
2020/12/01 01:43:11;;;;;;;20.98;3.88;;;11.90;95.20;;;;;;2081222;28;20017;-67
2020/12/01 01:44:30;;;;;;;15.85;3.63;;;11.90;95.20;;;;;;2081873;28;20032;-67
2020/12/01 01:45:43;;;;;;;21.42;3.25;;;12.00;95.20;;;;;;2080383;28;20024;-67
2020/12/01 01:46:51;;;;;;;24.73;4.60;;;11.90;95.20;;;;;;2081605;28;20036;-66
2020/12/01 01:47:51;;;;;;;25.42;4.40;;;11.90;95.30;;;;;;2086211;28;20017;-67
2020/12/01 01:48:52;;;;;;;22.80;3.60;;;11.90;95.30;;;;;;2080732;28;20064;-67
2020/12/01 01:50:01;;;;;;;22.15;4.38;;;11.90;95.40;;;;;;2079862;28;20013;-67
2020/12/01 01:51:19;;;;;;;20.90;4.50;;;11.90;95.50;;;;;;2081045;28;20393;-67
2020/12/01 01:52:40;;;;;;;21.70;3.63;;;11.90;95.50;;;;;;2085839;28;20029;-67
2020/12/01 01:53:46;;;;;;;20.42;3.60;;;11.90;95.40;;;;;;2098518;28;20035;-67
2020/12/01 01:54:50;;;;;;;21.95;3.88;;;11.90;95.40;;;;;;2092933;28;20020;-69
2020/12/01 01:55:56;;;;;;;20.50;4.35;;;11.90;95.40;;;;;;2079504;28;20394;-67
2020/12/01 01:57:01;;;;;;;22.30;3.67;;;11.90;95.40;;;;;;2081042;28;20041;-68
2020/12/01 01:58:03;;;;;;;18.98;3.30;;;11.90;95.40;;;;;;2080504;28;20033;-67
2020/12/01 01:59:06;;;;;;;23.40;3.28;;;11.80;95.40;;;;;;2080633;28;20017;-67
2020/12/01 02:00:20;;;;;;;22.23;3.22;;;11.80;95.60;;;;;;2080455;28;20017;-67
2020/12/01 02:01:25;;;;;;;19.08;3.58;;;11.80;95.60;;;;;;2080611;28;20104;-67
2020/12/01 02:02:26;;;;;;;19.98;3.58;;;11.80;95.90;;;;;;2088265;28;20096;-67
2020/12/01 02:03:30;;;;;;;24.80;3.33;;;11.80;95.60;;;;;;2084744;28;20068;-67
2020/12/01 02:04:31;;;;;;;18.48;3.38;;;11.80;95.70;;;;;;2079246;28;20098;-67
2020/12/01 02:05:32;;;;;;;19.23;3.53;;;11.80;95.70;;;;;;2081060;28;20025;-69
2020/12/01 02:06:44;;;;;;;24.35;4.18;;;11.80;95.70;;;;;;2079689;28;20029;-67
2020/12/01 02:07:44;;;;;;;25.20;3.20;;;11.80;95.70;;;;;;2090162;28;20498;-67
2020/12/01 02:08:51;;;;;;;16.30;3.03;;;11.80;95.70;;;;;;2090551;28;20267;-67
2020/12/01 02:09:56;;;;;;;14.82;2.75;;;11.80;95.70;;;;;;2087365;28;20112;-67
2020/12/01 02:10:57;;;;;;;20.25;3.10;;;11.80;95.60;;;;;;2079956;28;20101;-67
2020/12/01 02:12:01;;;;;;;18.80;3.10;;;11.80;95.50;;;;;;2080491;28;20036;-68
2020/12/01 02:13:03;;;;;;;18.50;3.97;;;11.80;95.50;;;;;;2080403;28;20017;-67
2020/12/01 02:14:13;;;;;;;15.05;2.70;;;11.80;95.30;;;;;;2080293;28;20534;-67
2020/12/01 02:15:14;;;;;;;19.40;3.33;;;11.80;95.30;;;;;;2079632;28;20032;-73
2020/12/01 02:16:15;;;;;;;19.43;3.03;;;11.80;95.40;;;;;;2071219;28;20571;-67
2020/12/01 02:17:24;;;;;;;20.38;3.03;;;11.80;95.30;;;;;;2080376;28;20312;-67
2020/12/01 02:18:30;;;;;;;19.35;2.80;;;11.80;95.30;;;;;;2081165;28;20381;-68
2020/12/01 02:19:31;;;;;;;18.67;3.75;;;11.80;95.40;;;;;;2080829;28;20034;-67
2020/12/01 02:20:36;;;;;;;23.02;3.42;;;11.80;95.30;;;;;;2080148;28;20028;-69
2020/12/01 02:21:39;;;;;;;16.73;3.13;;;11.80;95.20;;;;;;2080586;28;20021;-66
2020/12/01 02:22:45;;;;;;;19.35;2.92;;;11.80;95.20;;;;;;2083200;28;20028;-67
2020/12/01 02:23:46;;;;;;;18.80;3.25;;;11.80;95.20;;;;;;2084589;28;20075;-67
2020/12/01 02:24:49;;;;;;;15.32;2.47;;;11.80;95.20;;;;;;2083955;28;20035;-68
2020/12/01 02:25:51;;;;;;;21.00;3.70;;;11.80;95.20;;;;;;2080250;28;20029;-67
2020/12/01 02:26:54;;;;;;;16.30;2.92;;;11.80;95.20;;;;;;2080581;28;20021;-66
2020/12/01 02:27:59;;;;;;;17.40;2.92;;;11.80;95.20;;;;;;2080612;28;20025;-67
2020/12/01 02:29:07;;;;;;;17.65;2.58;;;11.80;95.20;;;;;;2084597;28;20017;-66
2020/12/01 02:30:11;;;;;;;20.77;3.10;;;11.80;95.20;;;;;;2088019;28;20020;-66
2020/12/01 02:31:12;;;;;;;19.77;3.22;;;11.90;95.10;;;;;;2080354;28;20100;-66
2020/12/01 02:32:14;;;;;;;22.42;3.47;;;11.90;95.10;;;;;;2080269;28;20083;-66
2020/12/01 02:33:15;;;;;;;21.85;3.72;;;11.90;95.10;;;;;;2080445;28;20033;-70
2020/12/01 02:34:18;;;;;;;29.40;3.72;;;11.90;95.10;;;;;;2079954;28;20060;-67
2020/12/01 02:35:19;;;;;;;26.35;3.80;;;11.90;95.10;;;;;;2082899;28;20111;-67
2020/12/01 02:36:20;;;;;;;35.75;4.03;;;11.90;95.10;;;;;;2084647;28;20033;-66
2020/12/01 02:37:25;;;;;;;27.38;4.18;;;11.90;95.20;;;;;;2084704;28;20033;-67
2020/12/01 02:38:26;;;;;;;35.70;4.38;;;11.90;95.20;;;;;;2080012;28;20084;-67
2020/12/01 02:39:28;;;;;;;20.77;3.60;;;11.80;95.30;;;;;;2084175;28;20373;-66
2020/12/01 02:40:29;;;;;;;;;;;11.90;95.40;;;;;;2086781;28;20060;-66
2020/12/01 02:41:29;;;;;;;32.60;4.00;;;11.80;95.40;;;;;;2093051;28;20000;-66
2020/12/01 02:42:30;;;;;;;33.83;4.22;;;11.80;95.60;;;;;;2099755;28;20584;-67
2020/12/01 02:43:31;;;;;;;25.75;3.42;;;11.80;95.70;;;;;;2088717;28;20033;-66
2020/12/01 02:44:32;;;;;;;29.92;4.97;;;11.70;95.70;;;;;;2087586;28;20079;-67
2020/12/01 02:45:32;;;;;;;32.67;3.92;;;11.70;95.80;;;;;;2087905;28;20036;-67
2020/12/01 02:46:36;;;;;;;25.20;3.75;;;11.70;95.70;;;;;;2088468;28;20048;-66
2020/12/01 02:47:36;;;;;;;22.83;3.70;;;11.70;95.50;;;;;;2087721;28;20029;-67
2020/12/01 02:48:37;;;;;;;23.67;2.90;;;11.60;95.30;;;;;;2085673;28;20021;-66
2020/12/01 02:49:38;;;;;;;24.45;3.67;;;11.70;95.10;;;;;;2080268;28;20036;-67
2020/12/01 02:50:39;;;;;;;16.40;2.58;;;11.60;95.10;;;;;;2080316;28;20026;-67
2020/12/01 02:51:40;;;;;;;24.70;3.88;;;11.60;95.10;;;;;;2082661;28;20524;-66
2020/12/01 02:52:41;;;;;;;23.00;3.72;;;11.60;95.00;;;;;;2080359;28;20029;-66
2020/12/01 02:53:42;;;;;;;20.00;2.97;;;11.60;94.90;;;;;;2086263;28;20481;-66
2020/12/01 02:54:42;;;;;;;24.70;3.38;;;11.60;94.90;;;;;;2086521;28;20040;-67
2020/12/01 02:55:43;;;;;;;22.08;2.65;;;11.70;94.60;;;;;;2079958;28;20173;-66
2020/12/01 02:56:45;;;;;;;26.05;3.10;;;11.70;94.50;;;;;;2079207;28;20020;-67
2020/12/01 02:57:46;;;;;;;14.45;2.63;;;11.70;94.40;;;;;;2079834;28;20044;-67
2020/12/01 02:58:47;;;;;;;17.83;2.83;;;11.70;94.40;;;;;;2087489;28;20675;-67
2020/12/01 02:59:47;;;;;;;23.08;3.65;;;11.70;94.50;;;;;;2088217;28;20033;-66
2020/12/01 03:00:48;;;;;;;21.67;3.80;;;11.70;94.50;;;;;;2088353;28;20132;-66
2020/12/01 03:01:49;;;;;;;28.17;4.35;;;11.80;94.50;;;;;;2088116;28;20021;-67
2020/12/01 03:02:49;;;;;;;19.48;3.25;;;11.80;94.60;;;;;;2083166;28;20029;-67
2020/12/01 03:03:50;;;;;;;20.52;3.60;;;11.70;94.50;;;;;;2081487;28;20032;-68
2020/12/01 03:04:51;;;;;;;27.65;3.95;;;11.70;94.50;;;;;;2083803;28;20017;-68
2020/12/01 03:05:52;;;;;;;24.65;3.47;;;11.80;94.50;;;;;;2078725;28;20492;-67
2020/12/01 03:06:52;;;;;;;33.80;4.82;;;11.70;94.50;;;;;;2084345;28;20024;-67
2020/12/01 03:07:53;;;;;;;22.00;3.40;;;11.70;94.40;;;;;;2086549;28;20040;-66
2020/12/01 03:08:54;;;;;;;20.88;4.32;;;11.80;94.30;;;;;;2086571;28;20067;-66
2020/12/01 03:09:54;;;;;;;28.58;3.65;;;11.70;94.10;;;;;;2085530;28;20066;-66
2020/12/01 03:10:55;;;;;;;23.27;3.40;;;11.80;94.10;;;;;;2079799;28;20067;-66
2020/12/01 03:11:56;;;;;;;25.60;3.50;;;11.80;94.20;;;;;;2078884;28;20018;-67
2020/12/01 03:12:57;;;;;;;35.83;4.55;;;11.80;94.30;;;;;;2079246;28;20557;-67
2020/12/01 03:13:58;;;;;;;30.05;3.78;;;11.80;94.60;;;;;;2079067;28;20029;-67
2020/12/01 03:15:00;;;;;;;21.25;3.35;;;11.80;94.40;;;;;;2071825;28;20658;-66
2020/12/01 03:16:09;;;;;;;28.15;3.47;;;11.80;94.40;;;;;;2087624;28;20021;-66
2020/12/01 03:17:09;;;;;;;28.23;4.03;;;11.80;94.30;;;;;;2088212;28;20061;-66
2020/12/01 03:18:10;;;;;;;32.58;4.05;;;11.80;94.40;;;;;;2088314;28;20025;-66
2020/12/01 03:19:11;;;;;;;25.45;4.43;;;11.80;94.40;;;;;;2086165;28;20117;-67
2020/12/01 03:20:12;;;;;;;30.92;3.80;;;11.80;94.40;;;;;;2087369;28;20029;-66
2020/12/01 03:21:14;;;;;;;34.72;4.75;;;11.80;94.30;;;;;;2087443;28;20032;-66
2020/12/01 03:22:15;;;;;;;29.42;4.32;;;11.80;94.20;;;;;;2084808;28;20362;-66
2020/12/01 03:23:16;;;;;;;36.97;4.55;;;11.80;94.30;;;;;;2087793;28;20067;-67
2020/12/01 03:24:17;;;;;;;31.73;4.07;;;11.70;94.50;;;;;;2079859;28;20018;-66
2020/12/01 03:25:17;;;;;;;24.75;3.75;;;11.70;94.30;;;;;;2081165;28;20025;-67
2020/12/01 03:26:18;;;;;;;26.88;3.55;;;11.70;94.20;;;;;;2088301;28;20021;-66
2020/12/01 03:27:19;;;;;;;32.60;4.43;;;11.70;94.30;;;;;;2082424;28;20583;-66
2020/12/01 03:28:20;;;;;;;25.88;4.53;;;11.70;94.30;;;;;;2079845;28;20262;-66
2020/12/01 03:29:21;;;;;;;29.92;4.53;;;11.70;94.40;;;;;;2081495;28;20108;-67
2020/12/01 03:30:21;;;;;;;38.63;3.92;;;11.70;94.40;;;;;;2079188;28;20109;-67
2020/12/01 03:31:22;;;;;;;32.83;4.40;;;11.70;94.50;;;;;;2070498;28;20420;-66
2020/12/01 03:32:24;;;;;;;28.13;4.30;;;11.70;94.50;;;;;;2082458;28;20028;-66
2020/12/01 03:33:25;;;;;;;33.60;3.90;;;11.70;94.50;;;;;;2087437;28;20028;-66
2020/12/01 03:34:26;;;;;;;28.38;3.60;;;11.70;94.50;;;;;;2087432;28;20086;-66
2020/12/01 03:35:27;;;;;;;27.73;3.88;;;11.70;94.40;;;;;;2086617;28;20198;-66
2020/12/01 03:36:28;;;;;;;28.35;4.95;;;11.70;94.30;;;;;;2080129;28;20026;-66
2020/12/01 03:37:29;;;;;;;26.73;3.55;;;11.70;94.30;;;;;;2084216;28;20033;-66
2020/12/01 03:38:30;;;;;;;28.08;4.13;;;11.70;94.30;;;;;;2088138;28;20053;-67
2020/12/01 03:39:30;;;;;;;21.33;3.40;;;11.70;94.30;;;;;;2080555;28;20083;-67
2020/12/01 03:40:31;;;;;;;18.67;3.47;;;11.70;94.10;;;;;;2079325;28;20045;-66
2020/12/01 03:41:33;;;;;;;23.85;3.03;;;11.60;94.10;;;;;;2079027;28;20026;-67
2020/12/01 03:42:34;;;;;;;15.68;2.58;;;11.60;94.20;;;;;;2083267;28;20017;-67
2020/12/01 03:43:35;;;;;;;17.52;2.83;;;11.60;94.30;;;;;;2088342;28;20105;-67
2020/12/01 03:44:36;;;;;;;19.02;3.25;;;11.50;94.30;;;;;;2087856;28;20032;-66
2020/12/01 03:45:37;;;;;;;16.67;2.40;;;11.60;94.00;;;;;;2088113;28;20021;-66
2020/12/01 03:46:37;;;;;;;22.63;3.27;;;11.60;93.70;;;;;;2086588;28;20021;-66
2020/12/01 03:47:38;;;;;;;19.90;2.65;;;11.50;93.80;;;;;;2083830;28;20669;-67
2020/12/01 03:48:39;;;;;;;16.65;3.33;;;11.60;93.40;;;;;;2088164;28;20035;-67
2020/12/01 03:49:40;;;;;;;21.00;3.35;;;11.60;93.60;;;;;;2083779;28;20075;-66
2020/12/01 03:50:41;;;;;;;22.30;3.08;;;11.50;93.40;;;;;;2089518;28;20025;-66
2020/12/01 03:51:41;;;;;;;19.58;2.85;;;11.50;93.70;;;;;;2089381;28;20094;-66
2020/12/01 03:52:42;;;;;;;23.42;3.53;;;11.50;93.40;;;;;;2081047;28;20140;-67
2020/12/01 03:53:43;;;;;;;18.15;3.03;;;11.50;93.50;;;;;;2086963;28;20055;-66
2020/12/01 03:54:43;;;;;;;22.13;3.15;;;11.50;93.30;;;;;;2087137;28;20024;-67
2020/12/01 03:55:44;;;;;;;17.48;2.45;;;11.40;93.30;;;;;;2089831;28;20021;-67
2020/12/01 03:56:45;;;;;;;22.95;2.67;;;11.40;93.50;;;;;;2087705;28;20029;-66
2020/12/01 03:57:46;;;;;;;15.88;2.53;;;11.40;93.10;;;;;;2089730;28;20511;-66
2020/12/01 03:58:47;;;;;;;13.57;2.80;;;11.40;93.20;;;;;;2084817;28;20028;-66
2020/12/01 03:59:48;;;;;;;15.10;3.05;;;11.40;93.00;;;;;;2082392;28;20107;-66
2020/12/01 04:00:49;;;;;;;16.45;2.95;;;11.40;92.90;;;;;;2079820;28;20065;-66
2020/12/01 04:01:50;;;;;;;18.45;2.97;;;11.30;93.00;;;;;;2085700;28;20017;-66
2020/12/01 04:02:51;;;;;;;13.15;2.45;;;11.30;92.70;;;;;;2081956;28;20583;-66
2020/12/01 04:03:52;;;;;;;18.73;3.33;;;11.20;92.80;;;;;;2088607;28;20013;-66
2020/12/01 04:04:53;;;;;;;21.48;3.05;;;11.20;93.00;;;;;;2089537;28;20078;-66
2020/12/01 04:05:53;;;;;;;11.00;3.00;;;11.20;92.70;;;;;;2089605;28;20104;-66
2020/12/01 04:06:56;;;;;;;14.20;2.45;;;11.20;92.80;;;;;;2083552;28;20509;-66
2020/12/01 04:07:57;;;;;;;15.27;2.22;;;11.10;92.40;;;;;;2083723;28;20014;-66
2020/12/01 04:08:58;;;;;;;17.83;2.70;;;11.10;92.40;;;;;;2083062;28;20033;-66
2020/12/01 04:09:59;;;;;;;14.38;2.63;;;11.10;92.40;;;;;;2082989;28;20028;-66
2020/12/01 04:11:03;;;;;;;12.60;2.03;;;11.10;92.00;;;;;;2085997;28;20029;-66
2020/12/01 04:12:04;;;;;;;13.23;2.10;;;11.10;92.00;;;;;;2083504;28;20075;-66
2020/12/01 04:13:05;;;;;;;14.57;2.58;;;11.10;92.20;;;;;;2081101;28;20121;-67
2020/12/01 04:14:06;;;;;;;10.38;2.40;;;11.00;92.20;;;;;;2088006;28;20024;-66
2020/12/01 04:15:07;;;;;;;12.48;2.30;;;11.00;92.10;;;;;;2088640;28;20035;-66
2020/12/01 04:16:08;;;;;;;16.83;1.90;;;11.00;92.10;;;;;;2087757;28;20522;-67
2020/12/01 04:17:09;;;;;;;7.95;2.55;;;11.00;92.30;;;;;;2089430;28;20035;-66
2020/12/01 04:18:10;;;;;;;13.15;2.88;;;10.90;92.20;;;;;;2084284;28;20036;-66
2020/12/01 04:19:11;;;;;;;12.10;2.70;;;10.90;92.10;;;;;;2088427;28;20021;-66
2020/12/01 04:20:12;;;;;;;14.93;3.40;;;10.90;91.60;;;;;;2085752;28;20022;-66
2020/12/01 04:21:13;;;;;;;16.45;2.90;;;10.80;91.40;;;;;;2080977;28;20114;-66
2020/12/01 04:22:15;;;;;;;13.50;2.63;;;10.80;91.10;;;;;;2084963;28;20566;-66
2020/12/01 04:23:15;;;;;;;18.27;3.30;;;10.80;91.20;;;;;;2080601;28;20018;-66
2020/12/01 04:24:16;;;;;;;12.05;2.55;;;10.80;91.20;;;;;;2080195;28;20497;-66
2020/12/01 04:25:21;;;;;;;12.23;2.70;;;10.70;91.30;;;;;;2080481;28;20132;-66
2020/12/01 04:26:22;;;;;;;14.32;3.25;;;10.60;91.50;;;;;;2080588;28;20022;-66
2020/12/01 04:27:23;;;;;;;13.15;2.70;;;10.60;91.20;;;;;;2077537;28;20025;-66
2020/12/01 04:28:24;;;;;;;17.73;3.17;;;10.60;91.40;;;;;;2088718;28;20104;-66
2020/12/01 04:29:25;;;;;;;13.63;2.20;;;10.50;91.50;;;;;;2086868;28;20033;-66
2020/12/01 04:30:25;;;;;;;11.07;2.63;;;10.50;91.30;;;;;;2089068;28;20013;-66
2020/12/01 04:31:26;;;;;;;9.85;2.90;;;10.50;90.90;;;;;;2085167;28;20129;-66
2020/12/01 04:32:27;;;;;;;17.15;2.60;;;10.50;90.70;;;;;;2085267;28;20032;-66
2020/12/01 04:33:28;;;;;;;12.20;2.83;;;10.50;90.90;;;;;;2089382;28;20032;-66
2020/12/01 04:34:28;;;;;;;17.45;2.40;;;10.50;90.60;;;;;;2087494;28;20108;-67
2020/12/01 04:35:29;;;;;;;15.77;1.90;;;10.40;90.90;;;;;;2087613;28;20060;-66
2020/12/01 04:36:30;;;;;;;15.10;2.08;;;10.40;89.90;;;;;;2080735;28;20029;-66
2020/12/01 04:37:31;;;;;;;16.52;2.55;;;10.30;90.00;;;;;;2089240;28;20013;-66
2020/12/01 04:38:31;;;;;;;13.68;2.42;;;10.30;90.20;;;;;;2082444;28;20032;-66
2020/12/01 04:39:33;;;;;;;19.50;3.03;;;10.30;89.90;;;;;;2082167;28;20124;-66
2020/12/01 04:40:38;;;;;;;21.73;2.67;;;10.20;87.80;;;;;;2078660;28;20197;-66
2020/12/01 04:41:39;;;;;;;13.25;3.40;;;10.20;88.00;;;;;;2072944;28;20128;-66
2020/12/01 04:42:49;;;;;;;17.50;3.42;;;10.20;86.50;;;;;;2077415;28;20029;-67
2020/12/01 04:43:57;;;;;;;16.30;4.05;;;10.10;85.40;;;;;;2082873;28;20193;-66
2020/12/01 04:45:13;;;;;;;17.45;4.07;;;10.10;85.50;;;;;;2089927;28;20458;-66
2020/12/01 04:46:21;;;;;;;13.85;3.45;;;10.00;84.80;;;;;;2089413;28;20079;-66
2020/12/01 04:47:34;;;;;;;22.42;4.00;;;10.00;84.20;;;;;;2086500;28;20100;-69
2020/12/01 04:48:38;;;;;;;19.27;4.60;;;10.00;83.70;;;;;;2080132;28;20030;-65
2020/12/01 04:49:42;;;;;;;15.98;3.60;;;10.00;84.50;;;;;;2082617;28;20033;-66
2020/12/01 04:50:56;;;;;;;18.77;3.28;;;9.90;83.50;;;;;;2089367;28;20029;-66
2020/12/01 04:52:00;;;;;;;19.17;3.65;;;9.90;84.20;;;;;;2089117;28;20511;-67
2020/12/01 04:53:52;;;;;;;19.75;3.08;;;9.80;84.50;;;;;;2088998;28;20029;-66
2020/12/01 04:55:02;;;;;;;15.60;2.38;;;9.80;82.50;;;;;;2079830;28;20169;-66
2020/12/01 04:56:16;;;;;;;16.45;3.00;;;9.70;82.90;;;;;;2080324;28;20524;-68
2020/12/01 04:58:01;;;;;;;14.68;2.67;;;9.60;83.70;;;;;;2087999;28;20635;-70
2020/12/01 04:59:27;;;;;;;18.58;3.83;;;9.50;84.10;;;;;;2085081;28;20040;-67
2020/12/01 05:00:38;;;;;;;18.50;2.83;;;9.40;85.00;;;;;;2088228;28;20023;-68
2020/12/01 05:01:48;;;;;;;19.60;3.20;;;9.30;85.20;;;;;;2088647;28;20027;-68
2020/12/01 05:03:01;;;;;;;19.17;2.35;;;9.20;85.00;;;;;;2087516;28;20079;-67
2020/12/01 05:04:22;;;;;;;16.33;3.38;;;9.10;84.40;;;;;;2081293;28;20018;-68
2020/12/01 05:06:23;;;;;;;16.35;2.65;;;9.10;84.00;;;;;;2081086;28;20029;-68
2020/12/01 05:07:48;;;;;;;15.07;2.75;;;9.10;85.00;;;;;;2085103;28;20021;-67
2020/12/01 05:09:07;;;;;;;18.67;2.67;;;9.00;86.00;;;;;;2090741;28;20100;-67
2020/12/01 05:10:12;;;;;;;17.98;3.08;;;8.90;85.90;;;;;;2089026;28;20092;-67
2020/12/01 05:11:16;;;;;;;21.95;2.88;;;8.90;85.00;;;;;;2084170;28;20034;-67
2020/12/01 05:12:31;;;;;;;17.40;3.20;;;8.90;85.20;;;;;;2080175;28;20056;-68
2020/12/01 05:13:34;;;;;;;19.02;3.08;;;8.90;85.90;;;;;;2080150;28;20025;-67
2020/12/01 05:14:42;;;;;;;18.20;3.13;;;8.90;85.80;;;;;;2080108;28;20045;-67
2020/12/01 05:15:48;;;;;;;13.45;3.03;;;8.90;85.20;;;;;;2087158;28;20102;-67
2020/12/01 05:17:14;;;;;;;17.88;2.88;;;8.90;85.40;;;;;;2089089;28;20032;-67
2020/12/01 05:18:26;;;;;;;12.70;2.97;;;8.80;85.40;;;;;;2088484;28;20025;-67
2020/12/01 05:19:38;;;;;;;21.58;3.42;;;8.80;85.60;;;;;;2085291;28;20036;-68
2020/12/01 05:20:50;;;;;;;12.82;2.90;;;8.80;86.10;;;;;;2082416;28;20400;-67
2020/12/01 05:21:51;;;;;;;13.55;2.65;;;8.80;85.00;;;;;;2084806;28;20661;-67
2020/12/01 05:22:56;;;;;;;18.65;3.25;;;8.70;85.50;;;;;;2080036;28;20026;-68
2020/12/01 05:23:57;;;;;;;19.85;3.47;;;8.70;85.50;;;;;;2087966;28;20021;-67
2020/12/01 05:24:58;;;;;;;12.38;2.50;;;8.70;85.70;;;;;;2087070;28;20419;-67
2020/12/01 05:26:01;;;;;;;16.90;3.03;;;8.70;86.20;;;;;;2083867;28;20067;-67